Paganini — V2CL8 — position and weather

sailwx.info

Track history (hours):
 
Tides and Currents Weather Stations Pressure Air Temp Water Temp Dewpoint Dewpoint Depression Visibility Wind Speed Wind Dir Waves Ship Positions

Paganini

Last reported at 2014-Dec-22 02:33 UTC. Time now 2014-Dec-22 02:49 UTC.
Position N 37°37' W 009°30'.

Length 90 m; draft 5.7 m.

Type: Cargo ship. MMSI: 305040000.

Date/timePositionNaut miles runAvg speedWind from/ knotsBaromVisibWave heightAir tempDewpointWater temp
2014-Dec-22 02:33N 37°37' W 009°30'11 8.5
2014-Dec-22 01:13N 37°26' W 009°27'205 7.9
2014-Dec-20 23:08N 35°58' W 005°36'5 8.4
2014-Dec-20 22:33N 35°59' W 005°30'7 7.4
2014-Dec-20 21:33N 35°57' W 005°21'4 3.5
2014-Dec-20 20:31N 35°54' W 005°19'0 0.0
2014-Dec-20 19:31N 35°54' W 005°19'0 0.0
2014-Dec-20 18:31N 35°54' W 005°19'0 0.0
2014-Dec-20 17:34N 35°54' W 005°19'4 4.1
2014-Dec-20 16:33N 35°57' W 005°22'96 9.5
2014-Dec-20 06:27N 34°57' W 006°55'10 9.7
2014-Dec-20 05:27N 34°49' W 007°02'  
Track history (hours):
 
Tides and Currents Weather Stations Pressure Air Temp Water Temp Dewpoint Dewpoint Depression Visibility Wind Speed Wind Dir Waves Ship Positions

Paganini

Last reported at 2014-Dec-22 02:33 UTC. Time now 2014-Dec-22 02:49 UTC.
Position N 37°37' W 009°30'.

Length 90 m; draft 5.7 m.

Type: Cargo ship. MMSI: 305040000.

Date/timePositionNaut miles runAvg speedWind from/ knotsBaromVisibWave heightAir tempDewpointWater temp
2014-Dec-22 02:33N 37°37' W 009°30'11 8.5
2014-Dec-22 01:13N 37°26' W 009°27'205 7.9
2014-Dec-20 23:08N 35°58' W 005°36'5 8.4
2014-Dec-20 22:33N 35°59' W 005°30'7 7.4
2014-Dec-20 21:33N 35°57' W 005°21'4 3.5
2014-Dec-20 20:31N 35°54' W 005°19'0 0.0
2014-Dec-20 19:31N 35°54' W 005°19'0 0.0
2014-Dec-20 18:31N 35°54' W 005°19'0 0.0
2014-Dec-20 17:34N 35°54' W 005°19'4 4.1
2014-Dec-20 16:33N 35°57' W 005°22'96 9.5
2014-Dec-20 06:27N 34°57' W 006°55'10 9.7
2014-Dec-20 05:27N 34°49' W 007°02'  

Dump ship's entire track history